sensor_id;sensor_type;location;lat;lon;timestamp;pressure;altitude;pressure_sealevel;temperature;humidity
47220;BME280;32961;51.936;4.788;2023-05-29T00:01:42;102440.88;;;12.20;82.97
47220;BME280;32961;51.936;4.788;2023-05-29T00:04:10;102438.25;;;12.18;82.69
47220;BME280;32961;51.936;4.788;2023-05-29T00:06:40;102439.22;;;12.17;83.26
47220;BME280;32961;51.936;4.788;2023-05-29T00:09:08;102439.00;;;12.20;83.46
47220;BME280;32961;51.936;4.788;2023-05-29T00:11:36;102433.69;;;12.19;83.54
47220;BME280;32961;51.936;4.788;2023-05-29T00:14:04;102434.88;;;12.15;83.27
47220;BME280;32961;51.936;4.788;2023-05-29T00:16:32;102436.16;;;12.22;83.22
47220;BME280;32961;51.936;4.788;2023-05-29T00:19:01;102440.25;;;12.16;83.76
47220;BME280;32961;51.936;4.788;2023-05-29T00:21:28;102433.16;;;12.14;83.97
47220;BME280;32961;51.936;4.788;2023-05-29T00:23:58;102437.22;;;12.08;84.19
47220;BME280;32961;51.936;4.788;2023-05-29T00:26:26;102436.34;;;12.08;84.25
47220;BME280;32961;51.936;4.788;2023-05-29T00:28:54;102441.38;;;12.01;84.23
47220;BME280;32961;51.936;4.788;2023-05-29T00:31:21;102444.22;;;11.99;84.37
47220;BME280;32961;51.936;4.788;2023-05-29T00:33:51;102445.34;;;11.97;83.71
47220;BME280;32961;51.936;4.788;2023-05-29T00:36:18;102447.72;;;11.88;83.83
47220;BME280;32961;51.936;4.788;2023-05-29T00:38:46;102451.75;;;11.83;83.52
47220;BME280;32961;51.936;4.788;2023-05-29T00:41:16;102449.59;;;11.75;83.75
47220;BME280;32961;51.936;4.788;2023-05-29T00:43:44;102452.34;;;11.75;83.28
47220;BME280;32961;51.936;4.788;2023-05-29T00:46:13;102451.13;;;11.79;82.88
47220;BME280;32961;51.936;4.788;2023-05-29T00:48:42;102452.34;;;11.75;82.77
47220;BME280;32961;51.936;4.788;2023-05-29T00:51:10;102456.81;;;11.76;83.12
47220;BME280;32961;51.936;4.788;2023-05-29T00:53:40;102465.81;;;11.77;82.81
47220;BME280;32961;51.936;4.788;2023-05-29T00:56:10;102468.34;;;11.67;83.38
47220;BME280;32961;51.936;4.788;2023-05-29T00:58:41;102479.38;;;11.65;83.35
47220;BME280;32961;51.936;4.788;2023-05-29T01:01:09;102471.31;;;11.64;83.28
47220;BME280;32961;51.936;4.788;2023-05-29T01:03:38;102474.91;;;11.64;83.23
47220;BME280;32961;51.936;4.788;2023-05-29T01:06:07;102475.00;;;11.63;83.47
47220;BME280;32961;51.936;4.788;2023-05-29T01:08:36;102482.28;;;11.62;83.01
47220;BME280;32961;51.936;4.788;2023-05-29T01:11:11;102472.94;;;11.66;82.96
47220;BME280;32961;51.936;4.788;2023-05-29T01:13:44;102483.63;;;11.56;83.14
47220;BME280;32961;51.936;4.788;2023-05-29T01:16:17;102482.31;;;11.49;83.69
47220;BME280;32961;51.936;4.788;2023-05-29T01:18:53;102481.44;;;11.49;83.51
47220;BME280;32961;51.936;4.788;2023-05-29T01:21:27;102482.31;;;11.49;83.21
47220;BME280;32961;51.936;4.788;2023-05-29T01:24:14;102481.13;;;11.40;83.19
47220;BME280;32961;51.936;4.788;2023-05-29T01:26:49;102481.22;;;11.39;83.22
47220;BME280;32961;51.936;4.788;2023-05-29T01:29:19;102487.03;;;11.34;83.07
47220;BME280;32961;51.936;4.788;2023-05-29T01:31:50;102491.16;;;11.27;83.50
47220;BME280;32961;51.936;4.788;2023-05-29T01:34:19;102489.72;;;11.21;83.84
47220;BME280;32961;51.936;4.788;2023-05-29T01:36:47;102483.31;;;11.22;83.40
47220;BME280;32961;51.936;4.788;2023-05-29T01:39:15;102495.47;;;11.17;83.61
47220;BME280;32961;51.936;4.788;2023-05-29T01:41:47;102485.81;;;11.13;83.15
47220;BME280;32961;51.936;4.788;2023-05-29T01:44:16;102496.56;;;11.14;83.47
47220;BME280;32961;51.936;4.788;2023-05-29T01:46:45;102492.22;;;11.12;82.90
47220;BME280;32961;51.936;4.788;2023-05-29T01:49:14;102493.09;;;10.99;82.70
47220;BME280;32961;51.936;4.788;2023-05-29T01:51:43;102492.88;;;11.02;83.19
47220;BME280;32961;51.936;4.788;2023-05-29T01:54:11;102491.22;;;11.00;82.78
47220;BME280;32961;51.936;4.788;2023-05-29T01:56:39;102498.31;;;11.02;82.51
47220;BME280;32961;51.936;4.788;2023-05-29T01:59:10;102498.28;;;10.89;82.52
47220;BME280;32961;51.936;4.788;2023-05-29T02:01:40;102502.97;;;10.87;82.86
47220;BME280;32961;51.936;4.788;2023-05-29T02:04:08;102505.59;;;10.89;82.69
47220;BME280;32961;51.936;4.788;2023-05-29T02:06:36;102506.22;;;10.80;83.03
47220;BME280;32961;51.936;4.788;2023-05-29T02:09:04;102503.50;;;10.80;83.31
47220;BME280;32961;51.936;4.788;2023-05-29T02:11:33;102510.78;;;10.79;83.57
47220;BME280;32961;51.936;4.788;2023-05-29T02:14:01;102506.88;;;10.83;82.92
47220;BME280;32961;51.936;4.788;2023-05-29T02:16:31;102499.44;;;10.72;83.52
47220;BME280;32961;51.936;4.788;2023-05-29T02:19:00;102507.84;;;10.69;83.45
47220;BME280;32961;51.936;4.788;2023-05-29T02:21:29;102511.94;;;10.62;84.04
47220;BME280;32961;51.936;4.788;2023-05-29T02:23:58;102504.75;;;10.61;83.96
47220;BME280;32961;51.936;4.788;2023-05-29T02:26:26;102504.41;;;10.53;84.32
47220;BME280;32961;51.936;4.788;2023-05-29T02:28:53;102510.38;;;10.58;84.32
47220;BME280;32961;51.936;4.788;2023-05-29T02:31:21;102503.97;;;10.59;84.26
47220;BME280;32961;51.936;4.788;2023-05-29T02:33:50;102512.13;;;10.59;84.14
47220;BME280;32961;51.936;4.788;2023-05-29T02:36:18;102493.88;;;10.61;83.91
47220;BME280;32961;51.936;4.788;2023-05-29T02:38:46;102499.94;;;10.52;84.18
47220;BME280;32961;51.936;4.788;2023-05-29T02:41:14;102515.16;;;10.54;84.50
47220;BME280;32961;51.936;4.788;2023-05-29T02:43:42;102511.69;;;10.52;84.59
47220;BME280;32961;51.936;4.788;2023-05-29T02:46:10;102506.56;;;10.48;84.81
47220;BME280;32961;51.936;4.788;2023-05-29T02:48:38;102505.03;;;10.43;84.90
47220;BME280;32961;51.936;4.788;2023-05-29T02:51:07;102497.44;;;10.34;85.11
47220;BME280;32961;51.936;4.788;2023-05-29T02:53:35;102501.84;;;10.37;85.54
47220;BME280;32961;51.936;4.788;2023-05-29T02:56:03;102508.91;;;10.39;85.16
47220;BME280;32961;51.936;4.788;2023-05-29T02:58:31;102504.56;;;10.37;85.50
47220;BME280;32961;51.936;4.788;2023-05-29T03:00:59;102513.94;;;10.31;85.87
47220;BME280;32961;51.936;4.788;2023-05-29T03:03:29;102522.88;;;10.33;85.94
47220;BME280;32961;51.936;4.788;2023-05-29T03:05:57;102524.91;;;10.30;85.96
47220;BME280;32961;51.936;4.788;2023-05-29T03:08:26;102523.38;;;10.25;86.21
47220;BME280;32961;51.936;4.788;2023-05-29T03:10:55;102520.56;;;10.27;86.38
47220;BME280;32961;51.936;4.788;2023-05-29T03:13:23;102517.19;;;10.23;86.55
47220;BME280;32961;51.936;4.788;2023-05-29T03:15:51;102519.28;;;10.33;85.96
47220;BME280;32961;51.936;4.788;2023-05-29T03:18:23;102522.16;;;10.17;86.56
47220;BME280;32961;51.936;4.788;2023-05-29T03:20:51;102521.47;;;10.13;87.20
47220;BME280;32961;51.936;4.788;2023-05-29T03:23:20;102522.91;;;10.19;86.79
47220;BME280;32961;51.936;4.788;2023-05-29T03:25:51;102518.66;;;10.15;86.79
47220;BME280;32961;51.936;4.788;2023-05-29T03:28:19;102524.28;;;10.11;86.94
47220;BME280;32961;51.936;4.788;2023-05-29T03:30:47;102512.44;;;10.12;86.60
47220;BME280;32961;51.936;4.788;2023-05-29T03:33:15;102510.81;;;10.10;86.77
47220;BME280;32961;51.936;4.788;2023-05-29T03:35:42;102519.25;;;10.05;86.86
47220;BME280;32961;51.936;4.788;2023-05-29T03:38:10;102518.28;;;10.06;87.05
47220;BME280;32961;51.936;4.788;2023-05-29T03:40:38;102509.28;;;10.06;86.47
47220;BME280;32961;51.936;4.788;2023-05-29T03:43:07;102514.19;;;10.14;86.12
47220;BME280;32961;51.936;4.788;2023-05-29T03:45:35;102515.38;;;10.09;85.85
47220;BME280;32961;51.936;4.788;2023-05-29T03:48:04;102523.53;;;9.95;86.54
47220;BME280;32961;51.936;4.788;2023-05-29T03:50:31;102526.81;;;10.00;86.41
47220;BME280;32961;51.936;4.788;2023-05-29T03:52:59;102528.56;;;10.01;86.33
47220;BME280;32961;51.936;4.788;2023-05-29T03:55:27;102531.69;;;9.95;86.60
47220;BME280;32961;51.936;4.788;2023-05-29T03:57:55;102518.13;;;9.95;86.51
47220;BME280;32961;51.936;4.788;2023-05-29T04:00:24;102530.91;;;9.93;86.77
47220;BME280;32961;51.936;4.788;2023-05-29T04:02:52;102530.72;;;9.96;86.50
47220;BME280;32961;51.936;4.788;2023-05-29T04:05:20;102527.44;;;9.91;86.42
47220;BME280;32961;51.936;4.788;2023-05-29T04:07:48;102536.34;;;9.93;86.14
47220;BME280;32961;51.936;4.788;2023-05-29T04:10:23;102532.53;;;9.95;86.34
47220;BME280;32961;51.936;4.788;2023-05-29T04:12:51;102532.53;;;9.95;86.39
47220;BME280;32961;51.936;4.788;2023-05-29T04:15:19;102534.41;;;9.95;86.29
47220;BME280;32961;51.936;4.788;2023-05-29T04:17:49;102529.75;;;9.97;86.42
47220;BME280;32961;51.936;4.788;2023-05-29T04:20:17;102548.56;;;10.00;86.15
47220;BME280;32961;51.936;4.788;2023-05-29T04:22:45;102543.22;;;9.99;86.35
47220;BME280;32961;51.936;4.788;2023-05-29T04:25:13;102545.72;;;10.02;86.00
47220;BME280;32961;51.936;4.788;2023-05-29T04:27:42;102542.66;;;9.93;86.19
47220;BME280;32961;51.936;4.788;2023-05-29T04:30:10;102549.44;;;10.01;86.25
47220;BME280;32961;51.936;4.788;2023-05-29T04:32:38;102546.81;;;9.99;86.56
47220;BME280;32961;51.936;4.788;2023-05-29T04:35:09;102546.63;;;10.02;86.24
47220;BME280;32961;51.936;4.788;2023-05-29T04:37:37;102543.69;;;10.05;86.25
47220;BME280;32961;51.936;4.788;2023-05-29T04:40:06;102548.94;;;10.08;86.08
47220;BME280;32961;51.936;4.788;2023-05-29T04:42:36;102560.09;;;10.04;85.71
47220;BME280;32961;51.936;4.788;2023-05-29T04:45:05;102549.91;;;10.07;85.86
47220;BME280;32961;51.936;4.788;2023-05-29T04:47:33;102547.19;;;10.07;85.51
47220;BME280;32961;51.936;4.788;2023-05-29T04:50:03;102554.66;;;10.04;85.62
47220;BME280;32961;51.936;4.788;2023-05-29T04:52:32;102553.69;;;10.05;86.01
47220;BME280;32961;51.936;4.788;2023-05-29T04:55:01;102555.34;;;10.07;86.04
47220;BME280;32961;51.936;4.788;2023-05-29T04:57:29;102565.91;;;10.12;85.92
47220;BME280;32961;51.936;4.788;2023-05-29T04:59:57;102564.25;;;10.24;85.62
47220;BME280;32961;51.936;4.788;2023-05-29T05:02:24;102570.25;;;10.29;84.59
47220;BME280;32961;51.936;4.788;2023-05-29T05:04:53;102572.28;;;10.25;84.40
47220;BME280;32961;51.936;4.788;2023-05-29T05:07:20;102578.28;;;10.31;84.38
47220;BME280;32961;51.936;4.788;2023-05-29T05:09:49;102571.88;;;10.32;84.30
47220;BME280;32961;51.936;4.788;2023-05-29T05:12:17;102571.28;;;10.41;84.22
47220;BME280;32961;51.936;4.788;2023-05-29T05:14:49;102575.69;;;10.43;83.71
47220;BME280;32961;51.936;4.788;2023-05-29T05:17:17;102566.47;;;10.46;83.30
47220;BME280;32961;51.936;4.788;2023-05-29T05:19:45;102570.59;;;10.52;83.20
47220;BME280;32961;51.936;4.788;2023-05-29T05:22:12;102570.00;;;10.61;82.84
47220;BME280;32961;51.936;4.788;2023-05-29T05:24:40;102574.66;;;10.59;82.28
47220;BME280;32961;51.936;4.788;2023-05-29T05:27:13;102568.25;;;10.60;81.71
47220;BME280;32961;51.936;4.788;2023-05-29T05:29:41;102565.41;;;10.62;81.22
47220;BME280;32961;51.936;4.788;2023-05-29T05:32:09;102572.56;;;10.77;81.22
47220;BME280;32961;51.936;4.788;2023-05-29T05:34:36;102570.91;;;10.74;80.25
47220;BME280;32961;51.936;4.788;2023-05-29T05:37:04;102570.88;;;10.89;80.39
47220;BME280;32961;51.936;4.788;2023-05-29T05:39:32;102576.06;;;10.92;79.65
47220;BME280;32961;51.936;4.788;2023-05-29T05:42:00;102569.66;;;10.93;79.14
47220;BME280;32961;51.936;4.788;2023-05-29T05:44:29;102582.44;;;11.05;79.23
47220;BME280;32961;51.936;4.788;2023-05-29T05:46:57;102577.22;;;11.15;78.95
47220;BME280;32961;51.936;4.788;2023-05-29T05:49:25;102585.03;;;11.07;78.14
47220;BME280;32961;51.936;4.788;2023-05-29T05:51:53;102574.94;;;11.09;79.07
47220;BME280;32961;51.936;4.788;2023-05-29T05:54:20;102586.72;;;11.22;78.48
47220;BME280;32961;51.936;4.788;2023-05-29T05:56:48;102584.00;;;11.35;77.30
47220;BME280;32961;51.936;4.788;2023-05-29T05:59:16;102584.00;;;11.48;77.48
47220;BME280;32961;51.936;4.788;2023-05-29T06:01:45;102588.69;;;11.46;76.98
47220;BME280;32961;51.936;4.788;2023-05-29T06:04:13;102587.41;;;11.52;76.76
47220;BME280;32961;51.936;4.788;2023-05-29T06:06:41;102589.38;;;11.63;76.21
47220;BME280;32961;51.936;4.788;2023-05-29T06:09:09;102588.81;;;11.70;76.05
47220;BME280;32961;51.936;4.788;2023-05-29T06:11:38;102598.94;;;11.81;76.09
47220;BME280;32961;51.936;4.788;2023-05-29T06:14:06;102610.69;;;11.82;74.98
47220;BME280;32961;51.936;4.788;2023-05-29T06:16:34;102607.44;;;11.90;74.10
47220;BME280;32961;51.936;4.788;2023-05-29T06:19:03;102610.16;;;11.90;73.99
47220;BME280;32961;51.936;4.788;2023-05-29T06:21:31;102592.44;;;11.97;74.71
47220;BME280;32961;51.936;4.788;2023-05-29T06:23:59;102595.69;;;12.02;74.10
47220;BME280;32961;51.936;4.788;2023-05-29T06:26:27;102599.59;;;11.98;73.76
47220;BME280;32961;51.936;4.788;2023-05-29T06:28:55;102605.16;;;11.96;73.46
47220;BME280;32961;51.936;4.788;2023-05-29T06:31:23;102593.69;;;11.91;72.21
47220;BME280;32961;51.936;4.788;2023-05-29T06:33:50;102590.13;;;12.03;73.29
47220;BME280;32961;51.936;4.788;2023-05-29T06:36:20;102597.59;;;12.26;71.98
47220;BME280;32961;51.936;4.788;2023-05-29T06:38:48;102596.03;;;12.34;71.41
47220;BME280;32961;51.936;4.788;2023-05-29T06:41:16;102588.94;;;12.45;69.89
47220;BME280;32961;51.936;4.788;2023-05-29T06:43:44;102596.34;;;12.43;69.11
47220;BME280;32961;51.936;4.788;2023-05-29T06:46:12;102595.38;;;12.44;68.26
47220;BME280;32961;51.936;4.788;2023-05-29T06:48:40;102602.63;;;12.56;67.79
47220;BME280;32961;51.936;4.788;2023-05-29T06:51:08;102601.41;;;12.60;66.67
47220;BME280;32961;51.936;4.788;2023-05-29T06:53:40;102604.97;;;12.74;67.25
47220;BME280;32961;51.936;4.788;2023-05-29T06:56:08;102608.34;;;12.77;65.76
47220;BME280;32961;51.936;4.788;2023-05-29T06:58:35;102612.81;;;12.78;64.94
47220;BME280;32961;51.936;4.788;2023-05-29T07:01:03;102608.97;;;12.81;65.77
47220;BME280;32961;51.936;4.788;2023-05-29T07:03:34;102606.13;;;12.82;65.87
47220;BME280;32961;51.936;4.788;2023-05-29T07:06:04;102630.63;;;12.95;66.21
47220;BME280;32961;51.936;4.788;2023-05-29T07:08:32;102623.75;;;13.14;64.11
47220;BME280;32961;51.936;4.788;2023-05-29T07:11:02;102626.78;;;13.22;64.40
47220;BME280;32961;51.936;4.788;2023-05-29T07:13:30;102614.03;;;13.34;63.71
47220;BME280;32961;51.936;4.788;2023-05-29T07:15:58;102604.53;;;13.51;64.85
47220;BME280;32961;51.936;4.788;2023-05-29T07:18:35;102608.66;;;13.68;63.62
47220;BME280;32961;51.936;4.788;2023-05-29T07:21:03;102603.34;;;13.67;62.32
47220;BME280;32961;51.936;4.788;2023-05-29T07:23:32;102601.94;;;13.61;62.01
47220;BME280;32961;51.936;4.788;2023-05-29T07:26:02;102615.25;;;13.66;61.10
47220;BME280;32961;51.936;4.788;2023-05-29T07:28:30;102613.75;;;13.61;61.91
47220;BME280;32961;51.936;4.788;2023-05-29T07:30:57;102615.88;;;13.69;62.52
47220;BME280;32961;51.936;4.788;2023-05-29T07:33:25;102624.69;;;13.73;61.99
47220;BME280;32961;51.936;4.788;2023-05-29T07:35:53;102621.13;;;13.72;61.64
47220;BME280;32961;51.936;4.788;2023-05-29T07:38:21;102624.69;;;13.61;61.67
47220;BME280;32961;51.936;4.788;2023-05-29T07:40:49;102616.91;;;13.79;62.06
47220;BME280;32961;51.936;4.788;2023-05-29T07:43:18;102615.88;;;13.80;61.64
47220;BME280;32961;51.936;4.788;2023-05-29T07:45:46;102621.88;;;13.86;61.67
47220;BME280;32961;51.936;4.788;2023-05-29T07:48:14;102616.41;;;13.86;60.43
47220;BME280;32961;51.936;4.788;2023-05-29T07:50:42;102632.94;;;13.95;60.58
47220;BME280;32961;51.936;4.788;2023-05-29T07:53:10;102635.91;;;14.04;60.87
47220;BME280;32961;51.936;4.788;2023-05-29T07:55:38;102626.09;;;14.24;60.63
47220;BME280;32961;51.936;4.788;2023-05-29T07:58:06;102621.97;;;14.29;59.24
47220;BME280;32961;51.936;4.788;2023-05-29T08:00:39;102615.50;;;14.42;58.43
47220;BME280;32961;51.936;4.788;2023-05-29T08:03:07;102637.34;;;14.65;58.51
47220;BME280;32961;51.936;4.788;2023-05-29T08:05:36;102632.53;;;14.68;57.92
47220;BME280;32961;51.936;4.788;2023-05-29T08:08:04;102633.25;;;14.59;57.56
47220;BME280;32961;51.936;4.788;2023-05-29T08:10:32;102626.69;;;14.50;57.85
47220;BME280;32961;51.936;4.788;2023-05-29T08:12:59;102630.41;;;14.60;57.45
47220;BME280;32961;51.936;4.788;2023-05-29T08:15:27;102630.56;;;14.70;58.30
47220;BME280;32961;51.936;4.788;2023-05-29T08:17:56;102627.16;;;14.78;57.44
47220;BME280;32961;51.936;4.788;2023-05-29T08:20:24;102635.22;;;14.80;56.25
47220;BME280;32961;51.936;4.788;2023-05-29T08:22:52;102633.91;;;14.74;56.74
47220;BME280;32961;51.936;4.788;2023-05-29T08:25:20;102636.84;;;14.82;57.79
47220;BME280;32961;51.936;4.788;2023-05-29T08:27:48;102639.47;;;14.84;57.77
47220;BME280;32961;51.936;4.788;2023-05-29T08:30:16;102637.69;;;14.94;56.54
47220;BME280;32961;51.936;4.788;2023-05-29T08:32:44;102638.44;;;14.85;56.90
47220;BME280;32961;51.936;4.788;2023-05-29T08:35:13;102642.16;;;14.95;57.19
47220;BME280;32961;51.936;4.788;2023-05-29T08:37:41;102631.59;;;14.90;57.60
47220;BME280;32961;51.936;4.788;2023-05-29T08:40:10;102638.06;;;14.89;57.04
47220;BME280;32961;51.936;4.788;2023-05-29T08:42:45;102638.53;;;14.95;57.08
47220;BME280;32961;51.936;4.788;2023-05-29T08:45:14;102638.78;;;15.03;56.39
47220;BME280;32961;51.936;4.788;2023-05-29T08:47:42;102649.19;;;15.09;57.40
47220;BME280;32961;51.936;4.788;2023-05-29T08:50:14;102640.94;;;15.20;56.62
47220;BME280;32961;51.936;4.788;2023-05-29T08:52:43;102638.03;;;15.33;55.67
47220;BME280;32961;51.936;4.788;2023-05-29T08:55:11;102648.13;;;15.33;55.33
47220;BME280;32961;51.936;4.788;2023-05-29T08:57:40;102648.06;;;15.44;56.08
47220;BME280;32961;51.936;4.788;2023-05-29T09:00:11;102650.03;;;15.63;55.53
47220;BME280;32961;51.936;4.788;2023-05-29T09:02:39;102655.75;;;15.50;55.08
47220;BME280;32961;51.936;4.788;2023-05-29T09:05:08;102647.44;;;15.62;54.63
47220;BME280;32961;51.936;4.788;2023-05-29T09:07:38;102646.81;;;15.91;54.95
47220;BME280;32961;51.936;4.788;2023-05-29T09:10:07;102654.34;;;15.98;53.29
47220;BME280;32961;51.936;4.788;2023-05-29T09:12:35;102651.19;;;16.03;53.25
47220;BME280;32961;51.936;4.788;2023-05-29T09:15:08;102656.00;;;16.11;53.30
47220;BME280;32961;51.936;4.788;2023-05-29T09:17:44;102654.75;;;15.94;53.06
47220;BME280;32961;51.936;4.788;2023-05-29T09:20:14;102653.94;;;16.03;53.64
47220;BME280;32961;51.936;4.788;2023-05-29T09:22:52;102651.09;;;16.14;52.98
47220;BME280;32961;51.936;4.788;2023-05-29T09:25:22;102652.56;;;16.18;52.79
47220;BME280;32961;51.936;4.788;2023-05-29T09:27:55;102643.13;;;16.42;52.49
47220;BME280;32961;51.936;4.788;2023-05-29T09:30:37;102640.56;;;16.50;51.97
47220;BME280;32961;51.936;4.788;2023-05-29T09:33:06;102639.94;;;16.37;51.19
47220;BME280;32961;51.936;4.788;2023-05-29T09:35:35;102648.56;;;16.23;51.67
47220;BME280;32961;51.936;4.788;2023-05-29T09:38:06;102643.09;;;16.32;51.72
47220;BME280;32961;51.936;4.788;2023-05-29T09:40:36;102647.47;;;16.04;51.10
47220;BME280;32961;51.936;4.788;2023-05-29T09:43:05;102641.91;;;16.25;51.62
47220;BME280;32961;51.936;4.788;2023-05-29T09:48:06;102620.31;;;16.51;51.36
47220;BME280;32961;51.936;4.788;2023-05-29T09:50:35;102630.88;;;16.56;50.69
47220;BME280;32961;51.936;4.788;2023-05-29T09:53:15;102627.69;;;16.41;51.29
47220;BME280;32961;51.936;4.788;2023-05-29T09:55:46;102633.38;;;16.59;50.51
47220;BME280;32961;51.936;4.788;2023-05-29T09:58:14;102629.34;;;16.73;48.96
47220;BME280;32961;51.936;4.788;2023-05-29T10:00:42;102637.44;;;16.84;49.43
47220;BME280;32961;51.936;4.788;2023-05-29T10:03:11;102627.03;;;16.78;50.39
47220;BME280;32961;51.936;4.788;2023-05-29T10:05:39;102631.84;;;16.86;49.41
47220;BME280;32961;51.936;4.788;2023-05-29T10:08:12;102622.84;;;16.64;49.37
47220;BME280;32961;51.936;4.788;2023-05-29T10:10:43;102612.63;;;16.86;50.61
47220;BME280;32961;51.936;4.788;2023-05-29T10:13:13;102632.47;;;17.19;50.13
47220;BME280;32961;51.936;4.788;2023-05-29T10:15:44;102638.66;;;17.41;47.64
47220;BME280;32961;51.936;4.788;2023-05-29T10:18:16;102630.84;;;17.36;48.97
47220;BME280;32961;51.936;4.788;2023-05-29T10:20:47;102636.50;;;17.35;48.52
47220;BME280;32961;51.936;4.788;2023-05-29T10:23:22;102621.03;;;17.04;48.65
47220;BME280;32961;51.936;4.788;2023-05-29T10:25:51;102637.38;;;17.15;47.46
47220;BME280;32961;51.936;4.788;2023-05-29T10:28:21;102626.09;;;16.99;48.86
47220;BME280;32961;51.936;4.788;2023-05-29T10:30:53;102616.84;;;17.00;49.11
47220;BME280;32961;51.936;4.788;2023-05-29T10:33:39;102637.22;;;17.27;49.25
47220;BME280;32961;51.936;4.788;2023-05-29T10:36:12;102625.81;;;17.31;47.17
47220;BME280;32961;51.936;4.788;2023-05-29T10:38:44;102622.75;;;17.15;47.94
47220;BME280;32961;51.936;4.788;2023-05-29T10:41:31;102629.84;;;17.27;49.05
47220;BME280;32961;51.936;4.788;2023-05-29T10:44:01;102624.75;;;17.52;47.55
47220;BME280;32961;51.936;4.788;2023-05-29T10:47:05;102624.47;;;17.55;46.44
47220;BME280;32961;51.936;4.788;2023-05-29T10:49:35;102612.31;;;17.58;46.35
47220;BME280;32961;51.936;4.788;2023-05-29T10:52:06;102611.44;;;17.67;47.35
47220;BME280;32961;51.936;4.788;2023-05-29T10:54:51;102615.25;;;18.04;48.88
47220;BME280;32961;51.936;4.788;2023-05-29T10:57:21;102604.13;;;18.33;46.48
47220;BME280;32961;51.936;4.788;2023-05-29T11:00:06;102615.56;;;18.28;45.81
47220;BME280;32961;51.936;4.788;2023-05-29T11:02:39;102619.53;;;18.44;45.64
47220;BME280;32961;51.936;4.788;2023-05-29T11:05:21;102613.94;;;18.36;45.88
47220;BME280;32961;51.936;4.788;2023-05-29T11:07:52;102621.88;;;18.39;46.05
47220;BME280;32961;51.936;4.788;2023-05-29T11:10:43;102614.91;;;18.44;45.83
47220;BME280;32961;51.936;4.788;2023-05-29T11:13:23;102605.88;;;18.24;46.65
47220;BME280;32961;51.936;4.788;2023-05-29T11:16:11;102598.41;;;18.44;47.11
47220;BME280;32961;51.936;4.788;2023-05-29T11:18:42;102602.84;;;18.27;45.91
47220;BME280;32961;51.936;4.788;2023-05-29T11:21:21;102605.53;;;18.37;46.22
47220;BME280;32961;51.936;4.788;2023-05-29T11:23:50;102604.75;;;18.45;46.53
47220;BME280;32961;51.936;4.788;2023-05-29T11:26:22;102599.88;;;18.39;46.15
47220;BME280;32961;51.936;4.788;2023-05-29T11:28:51;102608.16;;;18.57;46.96
47220;BME280;32961;51.936;4.788;2023-05-29T11:31:20;102603.44;;;18.49;45.64
47220;BME280;32961;51.936;4.788;2023-05-29T11:33:50;102614.81;;;18.36;46.04
47220;BME280;32961;51.936;4.788;2023-05-29T11:36:18;102607.97;;;18.12;46.54
47220;BME280;32961;51.936;4.788;2023-05-29T11:38:47;102614.03;;;17.69;48.75
47220;BME280;32961;51.936;4.788;2023-05-29T11:41:16;102613.44;;;17.65;48.85
47220;BME280;32961;51.936;4.788;2023-05-29T11:43:56;102609.41;;;17.59;49.28
47220;BME280;32961;51.936;4.788;2023-05-29T11:46:24;102613.72;;;17.72;49.94
47220;BME280;32961;51.936;4.788;2023-05-29T11:48:53;102601.66;;;17.83;50.16
47220;BME280;32961;51.936;4.788;2023-05-29T11:51:20;102617.28;;;17.92;47.77
47220;BME280;32961;51.936;4.788;2023-05-29T11:53:50;102606.13;;;18.03;48.00
47220;BME280;32961;51.936;4.788;2023-05-29T11:56:24;102606.16;;;18.31;47.02
47220;BME280;32961;51.936;4.788;2023-05-29T11:58:54;102614.34;;;18.41;46.11
47220;BME280;32961;51.936;4.788;2023-05-29T12:01:24;102602.09;;;17.88;48.89
47220;BME280;32961;51.936;4.788;2023-05-29T12:03:53;102608.75;;;17.95;49.60
47220;BME280;32961;51.936;4.788;2023-05-29T12:06:33;102611.94;;;18.00;48.61
47220;BME280;32961;51.936;4.788;2023-05-29T12:09:04;102608.66;;;17.77;49.54
47220;BME280;32961;51.936;4.788;2023-05-29T12:11:32;102592.13;;;17.96;50.31
47220;BME280;32961;51.936;4.788;2023-05-29T12:14:03;102596.13;;;17.55;49.84
47220;BME280;32961;51.936;4.788;2023-05-29T12:16:33;102597.78;;;17.75;49.77
47220;BME280;32961;51.936;4.788;2023-05-29T12:19:02;102598.88;;;18.02;49.34
47220;BME280;32961;51.936;4.788;2023-05-29T12:21:29;102580.09;;;18.25;50.47
47220;BME280;32961;51.936;4.788;2023-05-29T12:23:57;102593.97;;;18.34;49.27
47220;BME280;32961;51.936;4.788;2023-05-29T12:26:29;102580.88;;;18.18;48.73
47220;BME280;32961;51.936;4.788;2023-05-29T12:29:03;102591.31;;;18.14;49.58
47220;BME280;32961;51.936;4.788;2023-05-29T12:31:32;102589.53;;;18.23;50.17
47220;BME280;32961;51.936;4.788;2023-05-29T12:34:01;102589.53;;;18.23;50.37
47220;BME280;32961;51.936;4.788;2023-05-29T12:36:29;102584.03;;;18.23;49.42
47220;BME280;32961;51.936;4.788;2023-05-29T12:38:59;102584.03;;;18.23;49.51
47220;BME280;32961;51.936;4.788;2023-05-29T12:41:28;102592.06;;;18.34;48.38
47220;BME280;32961;51.936;4.788;2023-05-29T12:43:57;102584.59;;;18.26;49.34
47220;BME280;32961;51.936;4.788;2023-05-29T12:46:27;102587.28;;;18.36;50.01
47220;BME280;32961;51.936;4.788;2023-05-29T12:48:55;102586.63;;;18.70;47.60
47220;BME280;32961;51.936;4.788;2023-05-29T12:51:24;102602.53;;;17.93;48.69
47220;BME280;32961;51.936;4.788;2023-05-29T12:53:52;102598.19;;;17.90;49.51
47220;BME280;32961;51.936;4.788;2023-05-29T12:56:22;102582.50;;;18.38;47.70
47220;BME280;32961;51.936;4.788;2023-05-29T12:58:50;102585.31;;;18.28;47.96
47220;BME280;32961;51.936;4.788;2023-05-29T13:01:18;102588.63;;;18.32;48.43
47220;BME280;32961;51.936;4.788;2023-05-29T13:03:50;102592.44;;;18.49;47.98
47220;BME280;32961;51.936;4.788;2023-05-29T13:06:18;102592.28;;;18.51;47.11